Weather at Dobbins Helipad

Public forecast

Using degrees Fahrenheit for public forecast. Weather courtesy of forecast.io.

Closest aviation weather report (METAR) to Dobbins Helipad

Closest report is Phoenix Sky Harbor International Airport, 6.1 nm (11.2 km) NNE.

2024/07/17 18:51 (retrieved 27 minutes ago)

KPHX 171851Z 23003G16KT 10SM FEW170 SCT250 39/15 A2987 RMK AO2 SLP091 T03890150

Closest aviation forecast (TAF) to Dobbins Helipad

Closest forecast is Phoenix Sky Harbor International Airport, 6.1 nm (11.2 km) NNE.

2024/07/17 18:45 (retrieved 33 minutes ago)

TAF KPHX 171742Z 1718/1824 28007KT P6SM FEW140 FM172200 28012G21KT P6SM FEW140 FM180300 29010KT P6SM FEW130 FEW250 TEMPO 1803/1805 35010KT FM181100 12005KT P6SM SCT150 SCT250 FM181600 26006KT P6SM FEW150 SCT250